Terminal Aerodrome Forecast
Issued by NWS Greer, SC

Home | Current Version | Previous Version | Text Only | Print | Product List | Glossary On
Versions: 1 2 3 4 5 6 7 8 9 10 11 12 13 14 15 16 17 18 19 20 21 22 23 24 25 26
000
FTUS42 KGSP 231724
TAFAVL
TAF
KAVL 231724Z 2318/2418 18006KT P6SM VCTS BKN045CB
      TEMPO 2318/2322 VRB15G25KT 4SM -TSRA OVC025CB
     FM232200 17006KT P6SM VCTS BKN050CB
     FM240000 32004KT P6SM BKN070
     FM240900 34006KT 5SM BR BKN035
     FM241300 34006KT P6SM SCT040 BKN250 PROB30 2416/2418 4SM -TSRA
      BKN045CB=

USA.gov is the U.S. government's official web portal to all federal, state and local government web resources and services.